createdAt,value
2022-08-10T00:03:01.125Z,6.30
2022-08-10T00:05:53.244Z,6.60
2022-08-10T00:08:41.909Z,6.80
2022-08-10T00:11:29.856Z,6.50
2022-08-10T00:14:18.689Z,6.40
2022-08-10T00:17:06.475Z,6.20
2022-08-10T00:20:03.395Z,6.40
2022-08-10T00:22:57.552Z,6.60
2022-08-10T00:25:46.585Z,5.90
2022-08-10T00:28:35.320Z,6.10
2022-08-10T00:31:23.651Z,6.40
2022-08-10T00:34:11.797Z,5.10
2022-08-10T00:37:02.610Z,5.90
2022-08-10T00:39:50.665Z,6.10
2022-08-10T00:42:38.579Z,5.70
2022-08-10T00:45:26.619Z,6.70
2022-08-10T00:48:14.784Z,5.70
2022-08-10T00:51:02.849Z,5.70
2022-08-10T00:53:50.947Z,6.50
2022-08-10T00:57:16.583Z,7.10
2022-08-10T00:59:57.896Z,5.80
2022-08-10T01:02:47.521Z,6.60
2022-08-10T01:05:51.279Z,6.10
2022-08-10T01:08:59.257Z,6.40
2022-08-10T01:12:37.588Z,6.80
2022-08-10T01:15:32.266Z,6.00
2022-08-10T01:19:17.141Z,5.80
2022-08-10T01:22:33.777Z,6.00
2022-08-10T01:26:11.946Z,5.70
2022-08-10T01:29:35.157Z,5.50
2022-08-10T01:32:50.545Z,5.90
2022-08-10T01:35:47.255Z,5.70
2022-08-10T01:38:42.707Z,5.50
2022-08-10T01:41:46.522Z,5.60
2022-08-10T01:44:40.420Z,5.80
2022-08-10T01:47:58.097Z,5.80
2022-08-10T01:50:59.346Z,6.20
2022-08-10T01:54:13.448Z,5.60
2022-08-10T01:57:03.247Z,6.10
2022-08-10T01:59:58.742Z,5.40
2022-08-10T02:02:58.206Z,5.80
2022-08-10T02:05:53.442Z,6.00
2022-08-10T02:08:46.270Z,5.80
2022-08-10T02:12:06.377Z,5.60
2022-08-10T02:14:57.028Z,6.70
2022-08-10T02:18:01.991Z,6.70
2022-08-10T02:20:53.528Z,5.40
2022-08-10T02:23:43.723Z,6.30
2022-08-10T02:26:33.581Z,5.60
2022-08-10T02:29:22.312Z,5.90
2022-08-10T02:32:12.742Z,6.40
2022-08-10T02:35:22.012Z,6.80
2022-08-10T02:38:13.938Z,6.40
2022-08-10T02:42:18.645Z,6.40
2022-08-10T02:45:26.673Z,6.70
2022-08-10T02:48:13.490Z,6.20
2022-08-10T02:51:11.741Z,6.00
2022-08-10T02:54:09.084Z,5.60
2022-08-10T02:57:11.454Z,5.70
2022-08-10T03:00:07.836Z,6.40
2022-08-10T03:02:58.252Z,5.70
2022-08-10T03:05:50.060Z,5.20
2022-08-10T03:08:44.124Z,6.20
2022-08-10T03:12:35.849Z,6.10
2022-08-10T03:14:44.876Z,5.40
2022-08-10T03:17:33.654Z,5.60
2022-08-10T03:20:36.534Z,5.80
2022-08-10T03:23:28.624Z,5.40
2022-08-10T03:26:20.512Z,5.20
2022-08-10T03:29:10.297Z,5.50
2022-08-10T03:31:59.468Z,5.50
2022-08-10T03:34:48.323Z,5.40
2022-08-10T03:37:36.871Z,5.00
2022-08-10T03:40:44.715Z,5.20
2022-08-10T03:43:34.772Z,5.00
2022-08-10T03:46:28.545Z,5.00
2022-08-10T03:49:19.517Z,5.00
2022-08-10T03:52:10.396Z,5.00
2022-08-10T03:54:59.942Z,4.90
2022-08-10T03:57:49.765Z,5.50
2022-08-10T04:00:39.335Z,5.30
2022-08-10T04:03:29.251Z,5.10
2022-08-10T04:06:17.841Z,5.30
2022-08-10T04:09:06.320Z,5.70
2022-08-10T04:11:54.217Z,5.10
2022-08-10T04:14:48.945Z,5.50
2022-08-10T04:17:56.888Z,5.40
2022-08-10T04:20:57.311Z,5.60
2022-08-10T04:23:53.082Z,5.50
2022-08-10T04:26:42.556Z,4.70
2022-08-10T04:29:31.110Z,4.70
2022-08-10T04:32:22.510Z,5.10
2022-08-10T04:35:12.568Z,4.90
2022-08-10T04:38:08.639Z,5.20
2022-08-10T04:40:57.319Z,5.30
2022-08-10T04:43:46.310Z,5.10
2022-08-10T04:46:55.233Z,5.90
2022-08-10T04:49:56.081Z,5.60
2022-08-10T04:52:45.142Z,4.90
2022-08-10T04:55:33.031Z,5.40
2022-08-10T04:58:21.077Z,4.90
2022-08-10T05:01:08.880Z,4.70
2022-08-10T05:04:35.447Z,5.00
2022-08-10T05:07:18.673Z,4.40
2022-08-10T05:10:11.624Z,4.80
2022-08-10T05:13:01.210Z,4.40
2022-08-10T05:15:52.131Z,4.60
2022-08-10T05:18:40.571Z,4.30
2022-08-10T05:21:56.428Z,4.30
2022-08-10T05:24:37.190Z,4.20
2022-08-10T05:27:25.068Z,3.60
2022-08-10T05:30:18.912Z,4.10
2022-08-10T05:33:09.003Z,3.70
2022-08-10T05:35:58.587Z,3.30
2022-08-10T05:38:48.829Z,3.50
2022-08-10T05:41:42.711Z,3.30
2022-08-10T05:44:33.825Z,2.90
2022-08-10T05:47:22.245Z,2.90
2022-08-10T05:50:11.781Z,2.50
2022-08-10T05:53:03.736Z,2.40
2022-08-10T05:56:09.534Z,7.50
2022-08-10T05:58:57.306Z,2.90
2022-08-10T06:02:31.215Z,2.50
2022-08-10T06:05:05.152Z,2.00
2022-08-10T06:08:14.134Z,2.20
2022-08-10T06:12:26.527Z,2.00
2022-08-10T06:14:36.943Z,1.90
2022-08-10T06:17:26.306Z,1.70
2022-08-10T06:20:14.619Z,1.90
2022-08-10T06:23:05.118Z,1.80
2022-08-10T06:26:10.367Z,2.00
2022-08-10T06:29:10.163Z,1.90
2022-08-10T06:32:00.903Z,1.80
2022-08-10T06:34:54.134Z,1.80
2022-08-10T06:37:50.783Z,1.60
2022-08-10T06:40:46.040Z,2.20
2022-08-10T06:43:35.572Z,1.70
2022-08-10T06:46:25.642Z,1.60
2022-08-10T06:49:16.391Z,1.60
2022-08-10T06:52:12.329Z,1.70
2022-08-10T06:55:11.414Z,1.80
2022-08-10T06:58:03.856Z,1.70
2022-08-10T07:00:56.479Z,1.70
2022-08-10T07:03:59.311Z,1.60
2022-08-10T07:06:50.819Z,1.80
2022-08-10T07:09:41.220Z,2.20
2022-08-10T07:12:32.131Z,2.30
2022-08-10T07:15:22.930Z,2.10
2022-08-10T07:18:32.842Z,2.30
2022-08-10T07:21:22.710Z,2.90
2022-08-10T07:24:16.797Z,4.20
2022-08-10T07:27:05.632Z,2.20
2022-08-10T07:29:55.990Z,1.90
2022-08-10T07:32:48.812Z,2.00
2022-08-10T07:35:43.191Z,1.70
2022-08-10T07:38:34.207Z,1.80
2022-08-10T07:41:25.267Z,2.00
2022-08-10T07:44:14.406Z,1.70
2022-08-10T07:47:06.129Z,1.60
2022-08-10T07:50:01.609Z,1.30
2022-08-10T07:52:52.374Z,1.80
2022-08-10T07:56:04.296Z,1.80
2022-08-10T07:59:04.790Z,1.50
2022-08-10T08:01:56.419Z,1.50
2022-08-10T08:04:45.830Z,1.60
2022-08-10T08:07:37.249Z,1.70
2022-08-10T08:10:29.483Z,2.20
2022-08-10T08:13:22.945Z,2.30
2022-08-10T08:16:17.750Z,2.20
2022-08-10T08:19:27.121Z,2.00
2022-08-10T08:24:06.309Z,2.00
2022-08-10T08:25:27.817Z,2.10
2022-08-10T08:28:16.328Z,1.80
2022-08-10T08:31:05.593Z,1.90
2022-08-10T08:33:55.423Z,1.70
2022-08-10T08:36:44.545Z,1.40
2022-08-10T08:39:33.747Z,1.30
2022-08-10T08:43:01.653Z,5.60
2022-08-10T08:46:20.655Z,2.10
2022-08-10T08:49:41.401Z,1.20
2022-08-10T08:54:01.295Z,1.40
2022-08-10T08:56:58.839Z,1.30
2022-08-10T09:00:40.574Z,1.20
2022-08-10T09:03:31.308Z,1.30
2022-08-10T09:06:29.831Z,1.20
2022-08-10T09:09:47.669Z,1.20
2022-08-10T09:12:53.999Z,1.20
2022-08-10T09:16:09.664Z,1.20
2022-08-10T09:19:35.661Z,1.10
2022-08-10T09:22:45.122Z,1.10
2022-08-10T09:25:43.206Z,1.00
2022-08-10T09:28:40.615Z,1.00
2022-08-10T09:31:42.246Z,1.50
2022-08-10T09:36:25.569Z,3.70
2022-08-10T09:38:54.599Z,1.30
2022-08-10T09:42:32.742Z,1.40
2022-08-10T09:45:35.261Z,1.70
2022-08-10T09:48:46.053Z,1.70
2022-08-10T09:52:07.569Z,1.30
2022-08-10T09:55:24.186Z,1.10
2022-08-10T09:59:26.859Z,1.50
2022-08-10T10:02:49.490Z,3.10
2022-08-10T10:06:04.810Z,1.60
2022-08-10T10:09:15.752Z,1.20
2022-08-10T10:12:42.354Z,1.20
2022-08-10T10:16:06.861Z,1.70
2022-08-10T10:19:51.803Z,1.20
2022-08-10T10:23:13.671Z,1.00
2022-08-10T10:26:19.958Z,1.20
2022-08-10T10:29:57.389Z,0.90
2022-08-10T10:33:20.175Z,1.60
2022-08-10T10:36:09.499Z,1.00
2022-08-10T10:39:01.657Z,1.00
2022-08-10T10:42:44.167Z,1.00
2022-08-10T10:46:04.891Z,1.10
2022-08-10T10:48:55.411Z,1.00
2022-08-10T10:52:10.440Z,1.00
2022-08-10T10:55:26.867Z,0.90
2022-08-10T10:58:39.889Z,1.10
2022-08-10T11:02:07.768Z,1.10
2022-08-10T11:05:05.885Z,1.00
2022-08-10T11:08:28.759Z,1.20
2022-08-10T11:12:01.814Z,1.20
2022-08-10T11:14:44.419Z,1.20
2022-08-10T11:18:36.926Z,1.10
2022-08-10T11:21:49.249Z,0.80
2022-08-10T11:25:11.997Z,1.00
2022-08-10T11:28:41.457Z,1.10
2022-08-10T11:31:43.624Z,1.00
2022-08-10T11:35:34.197Z,1.10
2022-08-10T11:39:16.655Z,1.20
2022-08-10T11:42:33.262Z,1.10
2022-08-10T11:45:36.951Z,1.30
2022-08-10T11:48:52.952Z,1.10
2022-08-10T11:51:55.594Z,1.10
2022-08-10T11:55:03.073Z,1.10
2022-08-10T11:58:00.824Z,1.10
2022-08-10T12:00:49.805Z,13.50
2022-08-10T12:03:41.722Z,12.70
2022-08-10T12:06:54.267Z,1.90
2022-08-10T12:10:11.623Z,1.40
2022-08-10T12:13:12.985Z,1.20
2022-08-10T12:16:18.536Z,1.30
2022-08-10T12:20:01.359Z,1.20
2022-08-10T12:23:22.420Z,1.50
2022-08-10T12:26:27.024Z,1.30
2022-08-10T12:29:30.194Z,1.50
2022-08-10T12:32:36.141Z,1.20
2022-08-10T12:36:18.293Z,1.60
2022-08-10T12:39:43.732Z,1.20
2022-08-10T12:43:01.515Z,1.50
2022-08-10T12:46:14.955Z,1.40
2022-08-10T12:49:25.752Z,1.40
2022-08-10T12:52:58.747Z,2.90
2022-08-10T12:55:53.397Z,1.60
2022-08-10T12:58:59.660Z,1.30
2022-08-10T13:02:06.328Z,1.30
2022-08-10T13:05:03.438Z,1.30
2022-08-10T13:08:27.269Z,1.00
2022-08-10T13:12:33.872Z,1.20
2022-08-10T13:14:58.447Z,1.70
2022-08-10T13:17:52.757Z,1.50
2022-08-10T13:20:41.864Z,1.30
2022-08-10T13:23:36.089Z,1.50
2022-08-10T13:26:26.185Z,1.80
2022-08-10T13:29:17.511Z,1.40
2022-08-10T13:32:13.394Z,1.40
2022-08-10T13:35:09.163Z,1.40
2022-08-10T13:37:59.009Z,1.40
2022-08-10T13:40:50.289Z,1.20
2022-08-10T13:43:50.913Z,1.70
2022-08-10T13:46:42.388Z,1.70
2022-08-10T13:49:33.393Z,1.50
2022-08-10T13:52:25.896Z,1.50
2022-08-10T13:55:17.403Z,1.30
2022-08-10T13:58:05.593Z,1.30
2022-08-10T14:00:56.159Z,1.70
2022-08-10T14:03:47.795Z,1.40
2022-08-10T14:06:38.798Z,1.40
2022-08-10T14:09:33.840Z,1.30
2022-08-10T14:12:32.024Z,1.30
2022-08-10T14:15:30.536Z,1.40
2022-08-10T14:18:19.350Z,1.30
2022-08-10T14:21:07.983Z,1.20
2022-08-10T14:23:57.207Z,1.40
2022-08-10T14:26:47.350Z,1.40
2022-08-10T14:29:46.667Z,1.20
2022-08-10T14:32:52.878Z,1.60
2022-08-10T14:36:21.108Z,1.90
2022-08-10T14:38:59.096Z,1.80
2022-08-10T14:42:04.603Z,1.50
2022-08-10T14:45:19.374Z,1.60
2022-08-10T14:48:38.448Z,1.70
2022-08-10T14:51:44.231Z,1.70
2022-08-10T14:54:35.231Z,1.90
2022-08-10T14:58:17.303Z,1.90
2022-08-10T15:00:42.803Z,1.70
2022-08-10T15:04:02.034Z,1.90
2022-08-10T15:06:55.968Z,1.50
2022-08-10T15:10:01.652Z,1.60
2022-08-10T15:12:54.763Z,1.50
2022-08-10T15:16:13.020Z,2.30
2022-08-10T15:20:00.843Z,2.00
2022-08-10T15:22:36.363Z,2.00
2022-08-10T15:25:26.272Z,1.80
2022-08-10T15:28:20.590Z,1.70
2022-08-10T15:31:13.831Z,1.60
2022-08-10T15:34:28.832Z,1.70
2022-08-10T15:37:40.564Z,1.90
2022-08-10T15:40:31.345Z,1.70
2022-08-10T15:43:27.261Z,1.60
2022-08-10T15:46:29.631Z,1.80
2022-08-10T15:50:39.975Z,1.70
2022-08-10T15:53:52.887Z,1.90
2022-08-10T15:57:03.193Z,1.70
2022-08-10T16:00:04.218Z,1.60
2022-08-10T16:03:05.807Z,1.50
2022-08-10T16:06:02.379Z,2.00
2022-08-10T16:10:24.640Z,8.40
2022-08-10T16:12:59.871Z,2.80
2022-08-10T16:16:07.560Z,1.90
2022-08-10T16:18:56.262Z,1.60
2022-08-10T16:21:59.518Z,1.90
2022-08-10T16:24:52.710Z,1.70
2022-08-10T16:27:43.444Z,1.90
2022-08-10T16:30:51.839Z,1.70
2022-08-10T16:33:53.344Z,1.50
2022-08-10T16:37:20.608Z,1.80
2022-08-10T16:40:12.619Z,1.70
2022-08-10T16:43:03.656Z,2.00
2022-08-10T16:45:56.085Z,2.00
2022-08-10T16:48:49.900Z,1.80
2022-08-10T16:51:40.045Z,1.90
2022-08-10T16:54:29.504Z,4.40
2022-08-10T16:57:20.025Z,5.30
2022-08-10T17:00:10.875Z,2.70
2022-08-10T17:03:22.840Z,2.20
2022-08-10T17:06:32.154Z,2.00
2022-08-10T17:09:25.135Z,1.90
2022-08-10T17:12:16.394Z,1.80
2022-08-10T17:15:10.250Z,2.00
2022-08-10T17:18:03.945Z,2.00
2022-08-10T17:20:52.368Z,1.90
2022-08-10T17:23:47.077Z,1.80
2022-08-10T17:26:38.461Z,2.10
2022-08-10T17:29:53.511Z,1.70
2022-08-10T17:32:59.366Z,2.30
2022-08-10T17:35:52.893Z,2.00
2022-08-10T17:38:47.031Z,1.90
2022-08-10T17:41:37.949Z,2.00
2022-08-10T17:44:27.352Z,2.10
2022-08-10T17:47:16.210Z,1.70
2022-08-10T17:50:06.280Z,1.90
2022-08-10T17:53:13.298Z,1.80
2022-08-10T17:56:02.887Z,2.30
2022-08-10T17:59:07.265Z,1.90
2022-08-10T18:02:10.668Z,2.00
2022-08-10T18:04:59.940Z,2.10
2022-08-10T18:07:58.837Z,2.20
2022-08-10T18:10:52.035Z,2.30
2022-08-10T18:13:56.491Z,2.30
2022-08-10T18:16:46.882Z,2.10
2022-08-10T18:19:37.587Z,2.40
2022-08-10T18:22:27.027Z,2.20
2022-08-10T18:25:24.177Z,2.50
2022-08-10T18:28:19.739Z,2.40
2022-08-10T18:31:11.889Z,2.30
2022-08-10T18:34:02.398Z,2.20
2022-08-10T18:36:52.754Z,2.40
2022-08-10T18:39:44.762Z,2.60
2022-08-10T18:42:50.180Z,2.50
2022-08-10T18:45:44.091Z,2.50
2022-08-10T18:48:51.341Z,2.80
2022-08-10T18:51:46.946Z,4.80
2022-08-10T18:54:45.673Z,4.50
2022-08-10T18:57:48.870Z,2.50
2022-08-10T19:00:58.805Z,2.30
2022-08-10T19:03:55.299Z,2.30
2022-08-10T19:06:49.432Z,2.50
2022-08-10T19:10:18.375Z,2.60
2022-08-10T19:13:54.094Z,2.10
2022-08-10T19:17:06.004Z,2.20
2022-08-10T19:20:55.690Z,2.40
2022-08-10T19:24:25.555Z,2.80
2022-08-10T19:27:57.671Z,2.50
2022-08-10T19:31:10.446Z,2.90
2022-08-10T19:34:25.590Z,3.10
2022-08-10T19:37:38.350Z,3.30
2022-08-10T19:41:09.457Z,3.10
2022-08-10T19:44:38.791Z,3.10
2022-08-10T19:48:12.605Z,13.90
2022-08-10T19:51:13.911Z,5.10
2022-08-10T19:54:38.455Z,4.20
2022-08-10T19:57:50.215Z,4.00
2022-08-10T20:00:54.934Z,3.90
2022-08-10T20:03:56.220Z,3.50
2022-08-10T20:07:09.949Z,3.70
2022-08-10T20:10:23.790Z,4.20
2022-08-10T20:13:42.188Z,3.90
2022-08-10T20:16:37.998Z,3.70
2022-08-10T20:19:54.783Z,3.40
2022-08-10T20:22:50.662Z,3.10
2022-08-10T20:25:42.796Z,3.60
2022-08-10T20:29:01.104Z,2.90
2022-08-10T20:32:20.726Z,3.00
2022-08-10T20:35:40.260Z,2.90
2022-08-10T20:38:41.044Z,3.00
2022-08-10T20:42:04.173Z,3.10
2022-08-10T20:45:04.277Z,3.00
2022-08-10T20:48:20.920Z,3.20
2022-08-10T20:51:15.396Z,2.80
2022-08-10T20:54:06.621Z,3.10
2022-08-10T20:57:55.136Z,3.40
2022-08-10T21:01:18.618Z,3.60
2022-08-10T21:05:05.330Z,2.90
2022-08-10T21:08:15.050Z,2.70
2022-08-10T21:11:23.347Z,3.20
2022-08-10T21:14:42.324Z,3.00
2022-08-10T21:17:48.989Z,3.90
2022-08-10T21:21:41.198Z,4.10
2022-08-10T21:24:52.037Z,4.10
2022-08-10T21:27:58.289Z,3.90
2022-08-10T21:30:59.322Z,3.50
2022-08-10T21:34:07.652Z,3.20
2022-08-10T21:37:07.874Z,3.90
2022-08-10T21:40:35.182Z,3.90
2022-08-10T21:44:28.560Z,3.40
2022-08-10T21:48:16.854Z,3.70
2022-08-10T21:52:12.856Z,3.50
2022-08-10T21:55:57.100Z,8.30
2022-08-10T21:59:30.615Z,4.20
2022-08-10T22:02:50.905Z,3.80
2022-08-10T22:05:59.026Z,4.40
2022-08-10T22:09:24.754Z,4.20
2022-08-10T22:12:34.906Z,4.50
2022-08-10T22:16:05.292Z,3.90
2022-08-10T22:19:18.119Z,4.00
2022-08-10T22:23:00.004Z,4.10
2022-08-10T22:26:37.274Z,3.60
2022-08-10T22:29:55.028Z,2.90
2022-08-10T22:33:30.346Z,3.40
2022-08-10T22:37:05.389Z,3.20
2022-08-10T22:40:45.148Z,3.20
2022-08-10T22:43:55.404Z,3.20
2022-08-10T22:47:03.357Z,3.20
2022-08-10T22:49:53.237Z,3.40
2022-08-10T22:53:01.654Z,3.20
2022-08-10T22:56:15.715Z,3.00
2022-08-10T22:59:06.861Z,3.40
2022-08-10T23:02:07.494Z,3.30
2022-08-10T23:05:24.801Z,3.00
2022-08-10T23:08:29.824Z,3.20
2022-08-10T23:11:32.667Z,3.00
2022-08-10T23:14:33.664Z,3.20
2022-08-10T23:18:00.916Z,3.20
2022-08-10T23:20:51.916Z,3.20
2022-08-10T23:23:42.352Z,3.30
2022-08-10T23:26:33.255Z,3.50
2022-08-10T23:29:24.064Z,3.40
2022-08-10T23:32:12.349Z,3.50
2022-08-10T23:36:13.110Z,3.10
2022-08-10T23:38:29.620Z,3.40
2022-08-10T23:41:30.291Z,3.40
2022-08-10T23:44:20.954Z,3.40
2022-08-10T23:47:13.943Z,3.50
2022-08-10T23:50:03.896Z,3.70
2022-08-10T23:53:02.409Z,3.00
2022-08-10T23:56:19.905Z,3.10
2022-08-10T23:59:15.003Z,3.40
